sensor_id;sensor_type;location;lat;lon;timestamp;P1;durP1;ratioP1;P2;durP2;ratioP2
20118;SDS011;10220;42.716;23.306;2023-02-24T00:01:31;4.43;;;3.10;;
20118;SDS011;10220;42.716;23.306;2023-02-24T00:04:01;6.80;;;3.73;;
20118;SDS011;10220;42.716;23.306;2023-02-24T00:06:31;6.47;;;3.73;;
20118;SDS011;10220;42.716;23.306;2023-02-24T00:09:06;5.30;;;3.73;;
20118;SDS011;10220;42.716;23.306;2023-02-24T00:11:43;5.37;;;3.07;;
20118;SDS011;10220;42.716;23.306;2023-02-24T00:14:12;8.87;;;4.07;;
20118;SDS011;10220;42.716;23.306;2023-02-24T00:16:43;6.40;;;4.40;;
20118;SDS011;10220;42.716;23.306;2023-02-24T00:19:14;2.83;;;1.87;;
20118;SDS011;10220;42.716;23.306;2023-02-24T00:21:42;12.60;;;3.47;;
20118;SDS011;10220;42.716;23.306;2023-02-24T00:24:08;7.47;;;3.43;;
20118;SDS011;10220;42.716;23.306;2023-02-24T00:26:34;7.27;;;3.10;;
20118;SDS011;10220;42.716;23.306;2023-02-24T00:29:02;4.53;;;2.90;;
20118;SDS011;10220;42.716;23.306;2023-02-24T00:31:28;5.93;;;3.47;;
20118;SDS011;10220;42.716;23.306;2023-02-24T00:33:55;6.67;;;3.73;;
20118;SDS011;10220;42.716;23.306;2023-02-24T00:36:21;5.67;;;2.50;;
20118;SDS011;10220;42.716;23.306;2023-02-24T00:38:51;6.73;;;3.33;;
20118;SDS011;10220;42.716;23.306;2023-02-24T00:41:26;5.83;;;2.93;;
20118;SDS011;10220;42.716;23.306;2023-02-24T00:43:53;2.73;;;2.53;;
20118;SDS011;10220;42.716;23.306;2023-02-24T00:46:21;3.83;;;3.43;;
20118;SDS011;10220;42.716;23.306;2023-02-24T00:48:50;2.80;;;2.47;;
20118;SDS011;10220;42.716;23.306;2023-02-24T00:51:22;5.03;;;3.50;;
20118;SDS011;10220;42.716;23.306;2023-02-24T00:53:50;6.47;;;3.10;;
20118;SDS011;10220;42.716;23.306;2023-02-24T00:56:20;2.73;;;1.93;;
20118;SDS011;10220;42.716;23.306;2023-02-24T00:58:46;3.13;;;2.20;;
20118;SDS011;10220;42.716;23.306;2023-02-24T01:01:15;3.17;;;2.73;;
20118;SDS011;10220;42.716;23.306;2023-02-24T01:03:45;6.27;;;2.93;;
20118;SDS011;10220;42.716;23.306;2023-02-24T01:06:15;4.90;;;2.73;;
20118;SDS011;10220;42.716;23.306;2023-02-24T01:08:44;4.37;;;3.03;;
20118;SDS011;10220;42.716;23.306;2023-02-24T01:11:14;3.07;;;2.50;;
20118;SDS011;10220;42.716;23.306;2023-02-24T01:13:59;5.53;;;2.77;;
20118;SDS011;10220;42.716;23.306;2023-02-24T01:16:27;4.10;;;2.10;;
20118;SDS011;10220;42.716;23.306;2023-02-24T01:18:53;3.57;;;3.20;;
20118;SDS011;10220;42.716;23.306;2023-02-24T01:21:19;4.13;;;2.20;;
20118;SDS011;10220;42.716;23.306;2023-02-24T01:23:48;6.93;;;3.47;;
20118;SDS011;10220;42.716;23.306;2023-02-24T01:26:14;4.90;;;3.47;;
20118;SDS011;10220;42.716;23.306;2023-02-24T01:28:41;3.27;;;2.97;;
20118;SDS011;10220;42.716;23.306;2023-02-24T01:31:07;1.80;;;1.63;;
20118;SDS011;10220;42.716;23.306;2023-02-24T01:33:33;3.23;;;2.40;;
20118;SDS011;10220;42.716;23.306;2023-02-24T01:36:14;6.23;;;3.47;;
20118;SDS011;10220;42.716;23.306;2023-02-24T01:38:42;2.97;;;2.67;;
20118;SDS011;10220;42.716;23.306;2023-02-24T01:41:10;4.30;;;2.70;;
20118;SDS011;10220;42.716;23.306;2023-02-24T01:46:36;4.10;;;2.77;;
20118;SDS011;10220;42.716;23.306;2023-02-24T01:51:42;3.67;;;2.50;;
20118;SDS011;10220;42.716;23.306;2023-02-24T01:54:17;4.13;;;3.10;;
20118;SDS011;10220;42.716;23.306;2023-02-24T01:56:46;2.17;;;1.97;;
20118;SDS011;10220;42.716;23.306;2023-02-24T01:59:13;3.83;;;2.67;;
20118;SDS011;10220;42.716;23.306;2023-02-24T02:01:40;2.53;;;2.03;;
20118;SDS011;10220;42.716;23.306;2023-02-24T02:04:50;5.97;;;3.53;;
20118;SDS011;10220;42.716;23.306;2023-02-24T02:07:00;3.80;;;2.53;;
20118;SDS011;10220;42.716;23.306;2023-02-24T02:09:26;1.83;;;1.60;;
20118;SDS011;10220;42.716;23.306;2023-02-24T02:11:52;3.20;;;2.60;;
20118;SDS011;10220;42.716;23.306;2023-02-24T02:14:18;4.27;;;2.60;;
20118;SDS011;10220;42.716;23.306;2023-02-24T02:39:09;2.83;;;2.20;;
20118;SDS011;10220;42.716;23.306;2023-02-24T02:41:33;1.90;;;1.70;;
20118;SDS011;10220;42.716;23.306;2023-02-24T02:44:08;3.63;;;2.70;;
20118;SDS011;10220;42.716;23.306;2023-02-24T02:46:42;3.67;;;2.70;;
20118;SDS011;10220;42.716;23.306;2023-02-24T02:49:19;5.10;;;3.07;;
20118;SDS011;10220;42.716;23.306;2023-02-24T02:51:57;3.23;;;1.90;;
20118;SDS011;10220;42.716;23.306;2023-02-24T02:57:21;4.07;;;2.50;;
20118;SDS011;10220;42.716;23.306;2023-02-24T03:00:00;2.63;;;1.80;;
20118;SDS011;10220;42.716;23.306;2023-02-24T03:02:52;2.40;;;1.93;;
20118;SDS011;10220;42.716;23.306;2023-02-24T03:05:26;4.77;;;2.30;;
20118;SDS011;10220;42.716;23.306;2023-02-24T03:08:08;2.67;;;1.63;;
20118;SDS011;10220;42.716;23.306;2023-02-24T03:10:35;3.03;;;2.13;;
20118;SDS011;10220;42.716;23.306;2023-02-24T03:13:04;3.47;;;2.93;;
20118;SDS011;10220;42.716;23.306;2023-02-24T03:15:33;4.60;;;2.67;;
20118;SDS011;10220;42.716;23.306;2023-02-24T03:18:08;5.53;;;3.20;;
20118;SDS011;10220;42.716;23.306;2023-02-24T03:20:49;9.60;;;3.67;;
20118;SDS011;10220;42.716;23.306;2023-02-24T03:23:22;4.13;;;3.27;;
20118;SDS011;10220;42.716;23.306;2023-02-24T03:26:03;4.80;;;2.93;;
20118;SDS011;10220;42.716;23.306;2023-02-24T03:31:45;1.90;;;1.70;;
20118;SDS011;10220;42.716;23.306;2023-02-24T03:34:26;2.60;;;2.40;;
20118;SDS011;10220;42.716;23.306;2023-02-24T03:37:01;4.37;;;2.23;;
20118;SDS011;10220;42.716;23.306;2023-02-24T03:39:27;3.70;;;2.63;;
20118;SDS011;10220;42.716;23.306;2023-02-24T03:41:57;3.20;;;2.37;;
20118;SDS011;10220;42.716;23.306;2023-02-24T03:44:28;3.63;;;2.50;;
20118;SDS011;10220;42.716;23.306;2023-02-24T03:46:54;3.77;;;2.40;;
20118;SDS011;10220;42.716;23.306;2023-02-24T03:49:20;4.40;;;2.43;;
20118;SDS011;10220;42.716;23.306;2023-02-24T04:00:40;3.87;;;2.20;;
20118;SDS011;10220;42.716;23.306;2023-02-24T04:03:37;1.73;;;1.57;;
20118;SDS011;10220;42.716;23.306;2023-02-24T04:11:51;2.77;;;2.20;;
20118;SDS011;10220;42.716;23.306;2023-02-24T04:15:02;2.60;;;2.07;;
20118;SDS011;10220;42.716;23.306;2023-02-24T04:17:43;3.63;;;1.70;;
20118;SDS011;10220;42.716;23.306;2023-02-24T04:20:13;2.50;;;1.90;;
20118;SDS011;10220;42.716;23.306;2023-02-24T04:23:06;5.17;;;2.80;;
20118;SDS011;10220;42.716;23.306;2023-02-24T04:25:32;4.53;;;1.93;;
20118;SDS011;10220;42.716;23.306;2023-02-24T04:27:59;2.60;;;1.73;;
20118;SDS011;10220;42.716;23.306;2023-02-24T04:30:28;3.10;;;1.90;;
20118;SDS011;10220;42.716;23.306;2023-02-24T04:32:57;2.87;;;2.17;;
20118;SDS011;10220;42.716;23.306;2023-02-24T04:35:23;1.80;;;1.63;;
20118;SDS011;10220;42.716;23.306;2023-02-24T04:37:50;1.63;;;1.53;;
20118;SDS011;10220;42.716;23.306;2023-02-24T04:40:17;3.50;;;2.20;;
20118;SDS011;10220;42.716;23.306;2023-02-24T04:42:46;2.83;;;1.60;;
20118;SDS011;10220;42.716;23.306;2023-02-24T04:45:23;3.27;;;2.33;;
20118;SDS011;10220;42.716;23.306;2023-02-24T04:47:51;3.77;;;2.00;;
20118;SDS011;10220;42.716;23.306;2023-02-24T04:50:20;3.50;;;2.50;;
20118;SDS011;10220;42.716;23.306;2023-02-24T04:52:51;5.13;;;2.00;;
20118;SDS011;10220;42.716;23.306;2023-02-24T04:55:19;3.13;;;2.53;;
20118;SDS011;10220;42.716;23.306;2023-02-24T04:57:48;8.57;;;3.60;;
20118;SDS011;10220;42.716;23.306;2023-02-24T05:00:16;22.00;;;3.17;;
20118;SDS011;10220;42.716;23.306;2023-02-24T05:02:51;2.23;;;1.30;;
20118;SDS011;10220;42.716;23.306;2023-02-24T05:05:19;4.13;;;2.63;;
20118;SDS011;10220;42.716;23.306;2023-02-24T05:07:59;2.20;;;1.73;;
20118;SDS011;10220;42.716;23.306;2023-02-24T05:10:30;3.10;;;2.23;;
20118;SDS011;10220;42.716;23.306;2023-02-24T05:12:59;4.37;;;2.80;;
20118;SDS011;10220;42.716;23.306;2023-02-24T05:15:26;3.53;;;2.23;;
20118;SDS011;10220;42.716;23.306;2023-02-24T05:17:56;14.33;;;2.63;;
20118;SDS011;10220;42.716;23.306;2023-02-24T05:20:28;2.13;;;1.60;;
20118;SDS011;10220;42.716;23.306;2023-02-24T05:23:12;2.27;;;2.07;;
20118;SDS011;10220;42.716;23.306;2023-02-24T05:25:37;2.53;;;1.70;;
20118;SDS011;10220;42.716;23.306;2023-02-24T05:28:07;4.13;;;1.70;;
20118;SDS011;10220;42.716;23.306;2023-02-24T05:30:32;3.43;;;1.90;;
20118;SDS011;10220;42.716;23.306;2023-02-24T05:32:58;9.13;;;2.77;;
20118;SDS011;10220;42.716;23.306;2023-02-24T05:35:24;2.63;;;2.10;;
20118;SDS011;10220;42.716;23.306;2023-02-24T05:37:50;2.90;;;2.10;;
20118;SDS011;10220;42.716;23.306;2023-02-24T05:40:15;2.43;;;1.73;;
20118;SDS011;10220;42.716;23.306;2023-02-24T05:42:44;2.93;;;1.80;;
20118;SDS011;10220;42.716;23.306;2023-02-24T05:45:09;5.63;;;2.53;;
20118;SDS011;10220;42.716;23.306;2023-02-24T05:47:35;6.53;;;2.13;;
20118;SDS011;10220;42.716;23.306;2023-02-24T05:50:02;2.23;;;2.03;;
20118;SDS011;10220;42.716;23.306;2023-02-24T05:52:27;4.33;;;1.57;;
20118;SDS011;10220;42.716;23.306;2023-02-24T05:54:53;3.27;;;2.03;;
20118;SDS011;10220;42.716;23.306;2023-02-24T05:57:19;9.20;;;2.80;;
20118;SDS011;10220;42.716;23.306;2023-02-24T05:59:47;6.53;;;1.90;;
20118;SDS011;10220;42.716;23.306;2023-02-24T06:02:14;2.27;;;1.93;;
20118;SDS011;10220;42.716;23.306;2023-02-24T06:04:43;4.33;;;2.40;;
20118;SDS011;10220;42.716;23.306;2023-02-24T06:07:24;1.30;;;1.20;;
20118;SDS011;10220;42.716;23.306;2023-02-24T06:09:55;1.73;;;1.43;;
20118;SDS011;10220;42.716;23.306;2023-02-24T06:12:23;15.00;;;2.10;;
20118;SDS011;10220;42.716;23.306;2023-02-24T06:14:51;6.67;;;2.13;;
20118;SDS011;10220;42.716;23.306;2023-02-24T06:17:17;8.23;;;2.93;;
20118;SDS011;10220;42.716;23.306;2023-02-24T06:19:44;7.97;;;2.93;;
20118;SDS011;10220;42.716;23.306;2023-02-24T06:22:11;2.60;;;2.03;;
20118;SDS011;10220;42.716;23.306;2023-02-24T06:24:38;3.70;;;2.03;;
20118;SDS011;10220;42.716;23.306;2023-02-24T06:27:13;3.50;;;2.20;;
20118;SDS011;10220;42.716;23.306;2023-02-24T06:29:47;6.93;;;2.90;;
20118;SDS011;10220;42.716;23.306;2023-02-24T06:32:16;3.67;;;1.97;;
20118;SDS011;10220;42.716;23.306;2023-02-24T06:34:43;3.40;;;2.33;;
20118;SDS011;10220;42.716;23.306;2023-02-24T06:37:10;3.27;;;1.83;;
20118;SDS011;10220;42.716;23.306;2023-02-24T06:39:38;2.03;;;1.37;;
20118;SDS011;10220;42.716;23.306;2023-02-24T06:42:04;2.80;;;2.33;;
20118;SDS011;10220;42.716;23.306;2023-02-24T06:44:33;3.63;;;2.10;;
20118;SDS011;10220;42.716;23.306;2023-02-24T06:47:00;3.90;;;1.77;;
20118;SDS011;10220;42.716;23.306;2023-02-24T06:49:26;4.93;;;1.83;;
20118;SDS011;10220;42.716;23.306;2023-02-24T06:51:53;4.80;;;1.97;;
20118;SDS011;10220;42.716;23.306;2023-02-24T06:54:23;2.63;;;1.57;;
20118;SDS011;10220;42.716;23.306;2023-02-24T06:56:59;4.00;;;2.30;;
20118;SDS011;10220;42.716;23.306;2023-02-24T06:59:27;2.43;;;2.07;;
20118;SDS011;10220;42.716;23.306;2023-02-24T07:01:53;4.07;;;2.00;;
20118;SDS011;10220;42.716;23.306;2023-02-24T07:04:19;3.03;;;2.47;;
20118;SDS011;10220;42.716;23.306;2023-02-24T07:06:49;4.40;;;2.80;;
20118;SDS011;10220;42.716;23.306;2023-02-24T07:09:17;3.00;;;2.07;;
20118;SDS011;10220;42.716;23.306;2023-02-24T07:11:45;3.27;;;2.70;;
20118;SDS011;10220;42.716;23.306;2023-02-24T07:14:15;4.77;;;2.23;;
20118;SDS011;10220;42.716;23.306;2023-02-24T07:16:41;4.40;;;2.53;;
20118;SDS011;10220;42.716;23.306;2023-02-24T07:19:10;2.57;;;2.13;;
20118;SDS011;10220;42.716;23.306;2023-02-24T07:21:38;3.13;;;2.10;;
20118;SDS011;10220;42.716;23.306;2023-02-24T07:24:08;8.30;;;3.10;;
20118;SDS011;10220;42.716;23.306;2023-02-24T07:26:37;4.07;;;2.93;;
20118;SDS011;10220;42.716;23.306;2023-02-24T07:29:09;3.53;;;1.97;;
20118;SDS011;10220;42.716;23.306;2023-02-24T07:31:35;4.73;;;2.50;;
20118;SDS011;10220;42.716;23.306;2023-02-24T07:34:01;5.97;;;2.30;;
20118;SDS011;10220;42.716;23.306;2023-02-24T07:36:27;6.03;;;2.80;;
20118;SDS011;10220;42.716;23.306;2023-02-24T07:39:03;17.27;;;3.60;;
20118;SDS011;10220;42.716;23.306;2023-02-24T07:41:32;3.53;;;2.20;;
20118;SDS011;10220;42.716;23.306;2023-02-24T07:43:58;5.00;;;3.13;;
20118;SDS011;10220;42.716;23.306;2023-02-24T07:46:27;10.30;;;3.37;;
20118;SDS011;10220;42.716;23.306;2023-02-24T07:48:53;12.50;;;3.70;;
20118;SDS011;10220;42.716;23.306;2023-02-24T07:51:21;8.57;;;3.87;;
20118;SDS011;10220;42.716;23.306;2023-02-24T07:53:49;8.83;;;3.47;;
20118;SDS011;10220;42.716;23.306;2023-02-24T07:56:17;8.60;;;3.97;;
20118;SDS011;10220;42.716;23.306;2023-02-24T07:58:44;5.53;;;2.83;;
20118;SDS011;10220;42.716;23.306;2023-02-24T08:01:14;4.23;;;2.57;;
20118;SDS011;10220;42.716;23.306;2023-02-24T08:03:52;5.50;;;3.13;;
20118;SDS011;10220;42.716;23.306;2023-02-24T08:06:34;5.57;;;3.33;;
20118;SDS011;10220;42.716;23.306;2023-02-24T08:09:05;3.80;;;2.27;;
20118;SDS011;10220;42.716;23.306;2023-02-24T08:11:52;11.63;;;3.30;;
20118;SDS011;10220;42.716;23.306;2023-02-24T08:14:19;8.63;;;3.10;;
20118;SDS011;10220;42.716;23.306;2023-02-24T08:16:49;6.37;;;2.57;;
20118;SDS011;10220;42.716;23.306;2023-02-24T08:19:17;4.20;;;3.03;;
20118;SDS011;10220;42.716;23.306;2023-02-24T08:21:46;5.23;;;2.60;;
20118;SDS011;10220;42.716;23.306;2023-02-24T08:24:17;6.77;;;3.47;;
20118;SDS011;10220;42.716;23.306;2023-02-24T08:26:48;6.07;;;3.13;;
20118;SDS011;10220;42.716;23.306;2023-02-24T08:32:19;7.20;;;4.00;;
20118;SDS011;10220;42.716;23.306;2023-02-24T08:34:48;4.10;;;2.97;;
20118;SDS011;10220;42.716;23.306;2023-02-24T08:37:14;7.63;;;2.87;;
20118;SDS011;10220;42.716;23.306;2023-02-24T08:39:39;3.73;;;2.63;;
20118;SDS011;10220;42.716;23.306;2023-02-24T08:42:07;5.17;;;3.10;;
20118;SDS011;10220;42.716;23.306;2023-02-24T08:44:33;3.83;;;2.83;;
20118;SDS011;10220;42.716;23.306;2023-02-24T08:47:01;7.60;;;3.60;;
20118;SDS011;10220;42.716;23.306;2023-02-24T08:49:29;4.00;;;2.27;;
20118;SDS011;10220;42.716;23.306;2023-02-24T08:51:57;6.17;;;3.50;;
20118;SDS011;10220;42.716;23.306;2023-02-24T08:54:26;7.73;;;3.10;;
20118;SDS011;10220;42.716;23.306;2023-02-24T08:56:56;3.93;;;3.20;;
20118;SDS011;10220;42.716;23.306;2023-02-24T08:59:32;7.93;;;3.73;;
20118;SDS011;10220;42.716;23.306;2023-02-24T09:02:20;4.93;;;2.37;;
20118;SDS011;10220;42.716;23.306;2023-02-24T09:04:55;5.53;;;3.53;;
20118;SDS011;10220;42.716;23.306;2023-02-24T09:07:24;5.73;;;3.90;;
20118;SDS011;10220;42.716;23.306;2023-02-24T09:09:52;7.93;;;3.30;;
20118;SDS011;10220;42.716;23.306;2023-02-24T09:12:22;5.97;;;3.30;;
20118;SDS011;10220;42.716;23.306;2023-02-24T09:14:50;8.13;;;3.83;;
20118;SDS011;10220;42.716;23.306;2023-02-24T09:17:19;6.20;;;3.07;;
20118;SDS011;10220;42.716;23.306;2023-02-24T09:20:04;6.00;;;3.60;;
20118;SDS011;10220;42.716;23.306;2023-02-24T09:22:51;5.38;;;3.28;;
20118;SDS011;10220;42.716;23.306;2023-02-24T09:25:34;5.95;;;2.83;;
20118;SDS011;10220;42.716;23.306;2023-02-24T09:30:52;4.53;;;2.92;;
20118;SDS011;10220;42.716;23.306;2023-02-24T09:35:49;9.63;;;3.97;;
20118;SDS011;10220;42.716;23.306;2023-02-24T09:38:33;5.88;;;3.30;;
20118;SDS011;10220;42.716;23.306;2023-02-24T09:44:10;6.75;;;4.60;;
20118;SDS011;10220;42.716;23.306;2023-02-24T09:46:43;8.18;;;3.45;;
20118;SDS011;10220;42.716;23.306;2023-02-24T09:49:18;6.28;;;2.95;;
20118;SDS011;10220;42.716;23.306;2023-02-24T09:51:47;7.93;;;3.97;;
20118;SDS011;10220;42.716;23.306;2023-02-24T09:54:24;6.55;;;3.17;;
20118;SDS011;10220;42.716;23.306;2023-02-24T09:57:07;8.80;;;4.28;;
20118;SDS011;10220;42.716;23.306;2023-02-24T09:59:50;6.22;;;3.80;;
20118;SDS011;10220;42.716;23.306;2023-02-24T10:03:03;5.00;;;3.38;;
20118;SDS011;10220;42.716;23.306;2023-02-24T10:06:10;19.42;;;9.77;;
20118;SDS011;10220;42.716;23.306;2023-02-24T10:08:52;9.75;;;3.15;;
20118;SDS011;10220;42.716;23.306;2023-02-24T10:11:35;6.93;;;3.92;;
20118;SDS011;10220;42.716;23.306;2023-02-24T10:14:04;6.47;;;4.38;;
20118;SDS011;10220;42.716;23.306;2023-02-24T10:16:43;4.57;;;3.28;;
20118;SDS011;10220;42.716;23.306;2023-02-24T10:19:13;13.05;;;7.90;;
20118;SDS011;10220;42.716;23.306;2023-02-24T10:21:52;13.13;;;6.22;;
20118;SDS011;10220;42.716;23.306;2023-02-24T10:24:41;9.75;;;5.05;;
20118;SDS011;10220;42.716;23.306;2023-02-24T10:27:25;5.43;;;3.95;;
20118;SDS011;10220;42.716;23.306;2023-02-24T10:32:54;5.60;;;4.13;;
20118;SDS011;10220;42.716;23.306;2023-02-24T10:35:24;8.45;;;5.32;;
20118;SDS011;10220;42.716;23.306;2023-02-24T10:37:57;6.85;;;4.25;;
20118;SDS011;10220;42.716;23.306;2023-02-24T10:40:29;9.43;;;4.60;;
20118;SDS011;10220;42.716;23.306;2023-02-24T10:43:19;6.00;;;3.55;;
20118;SDS011;10220;42.716;23.306;2023-02-24T10:45:54;8.98;;;4.50;;
20118;SDS011;10220;42.716;23.306;2023-02-24T10:48:30;8.10;;;4.53;;
20118;SDS011;10220;42.716;23.306;2023-02-24T10:51:06;7.78;;;4.38;;
20118;SDS011;10220;42.716;23.306;2023-02-24T10:53:35;8.00;;;4.07;;
20118;SDS011;10220;42.716;23.306;2023-02-24T10:56:14;10.30;;;4.15;;
20118;SDS011;10220;42.716;23.306;2023-02-24T10:59:10;8.82;;;4.68;;
20118;SDS011;10220;42.716;23.306;2023-02-24T11:02:02;6.57;;;3.67;;
20118;SDS011;10220;42.716;23.306;2023-02-24T11:04:53;9.57;;;4.35;;
20118;SDS011;10220;42.716;23.306;2023-02-24T11:07:23;10.25;;;4.95;;
20118;SDS011;10220;42.716;23.306;2023-02-24T11:12:35;8.77;;;4.55;;
20118;SDS011;10220;42.716;23.306;2023-02-24T11:15:31;9.60;;;4.07;;
20118;SDS011;10220;42.716;23.306;2023-02-24T11:18:19;7.82;;;4.75;;
20118;SDS011;10220;42.716;23.306;2023-02-24T11:20:59;8.82;;;4.95;;
20118;SDS011;10220;42.716;23.306;2023-02-24T11:23:28;8.40;;;4.53;;
20118;SDS011;10220;42.716;23.306;2023-02-24T11:26:33;12.90;;;4.97;;
20118;SDS011;10220;42.716;23.306;2023-02-24T11:39:52;9.30;;;4.82;;
20118;SDS011;10220;42.716;23.306;2023-02-24T11:42:26;9.05;;;5.18;;
20118;SDS011;10220;42.716;23.306;2023-02-24T11:47:53;8.77;;;4.75;;
20118;SDS011;10220;42.716;23.306;2023-02-24T11:53:26;12.73;;;5.50;;
20118;SDS011;10220;42.716;23.306;2023-02-24T11:55:58;10.27;;;5.68;;
20118;SDS011;10220;42.716;23.306;2023-02-24T11:58:40;11.95;;;5.03;;
20118;SDS011;10220;42.716;23.306;2023-02-24T12:01:16;8.07;;;4.13;;
20118;SDS011;10220;42.716;23.306;2023-02-24T12:03:52;8.88;;;4.95;;
20118;SDS011;10220;42.716;23.306;2023-02-24T12:06:22;11.02;;;4.47;;
20118;SDS011;10220;42.716;23.306;2023-02-24T12:08:53;12.65;;;5.20;;
20118;SDS011;10220;42.716;23.306;2023-02-24T12:14:36;9.20;;;4.50;;
20118;SDS011;10220;42.716;23.306;2023-02-24T12:19:52;8.68;;;5.45;;
20118;SDS011;10220;42.716;23.306;2023-02-24T12:22:25;14.40;;;6.10;;
20118;SDS011;10220;42.716;23.306;2023-02-24T12:24:58;9.70;;;5.50;;
20118;SDS011;10220;42.716;23.306;2023-02-24T12:33:29;9.27;;;4.70;;
20118;SDS011;10220;42.716;23.306;2023-02-24T12:39:11;9.70;;;4.60;;
20118;SDS011;10220;42.716;23.306;2023-02-24T12:45:16;11.13;;;5.15;;
20118;SDS011;10220;42.716;23.306;2023-02-24T12:53:19;8.98;;;5.38;;
20118;SDS011;10220;42.716;23.306;2023-02-24T12:58:17;9.10;;;6.15;;
20118;SDS011;10220;42.716;23.306;2023-02-24T13:00:51;15.85;;;7.13;;
20118;SDS011;10220;42.716;23.306;2023-02-24T13:13:06;10.07;;;5.90;;
20118;SDS011;10220;42.716;23.306;2023-02-24T13:15:54;10.95;;;5.50;;
20118;SDS011;10220;42.716;23.306;2023-02-24T13:18:23;10.13;;;5.15;;
20118;SDS011;10220;42.716;23.306;2023-02-24T13:21:05;12.68;;;7.57;;
20118;SDS011;10220;42.716;23.306;2023-02-24T13:23:32;12.63;;;5.65;;
20118;SDS011;10220;42.716;23.306;2023-02-24T13:25:58;12.20;;;5.72;;
20118;SDS011;10220;42.716;23.306;2023-02-24T13:31:01;12.60;;;6.30;;
20118;SDS011;10220;42.716;23.306;2023-02-24T13:33:39;9.60;;;6.30;;
20118;SDS011;10220;42.716;23.306;2023-02-24T13:36:10;12.60;;;7.72;;
20118;SDS011;10220;42.716;23.306;2023-02-24T13:38:46;12.90;;;7.22;;
20118;SDS011;10220;42.716;23.306;2023-02-24T13:44:02;12.32;;;7.22;;
20118;SDS011;10220;42.716;23.306;2023-02-24T14:03:10;15.02;;;6.95;;
20118;SDS011;10220;42.716;23.306;2023-02-24T14:05:42;13.80;;;7.45;;
20118;SDS011;10220;42.716;23.306;2023-02-24T14:08:11;10.95;;;6.78;;
20118;SDS011;10220;42.716;23.306;2023-02-24T14:10:45;15.60;;;7.72;;
20118;SDS011;10220;42.716;23.306;2023-02-24T14:13:18;15.23;;;8.23;;
20118;SDS011;10220;42.716;23.306;2023-02-24T14:15:51;14.57;;;6.88;;
20118;SDS011;10220;42.716;23.306;2023-02-24T14:18:18;16.38;;;7.38;;
20118;SDS011;10220;42.716;23.306;2023-02-24T14:20:46;11.07;;;5.97;;
20118;SDS011;10220;42.716;23.306;2023-02-24T14:23:25;11.85;;;6.88;;
20118;SDS011;10220;42.716;23.306;2023-02-24T14:26:00;13.82;;;6.45;;
20118;SDS011;10220;42.716;23.306;2023-02-24T14:28:33;11.98;;;6.25;;
20118;SDS011;10220;42.716;23.306;2023-02-24T14:31:07;14.75;;;6.80;;
20118;SDS011;10220;42.716;23.306;2023-02-24T14:33:35;14.38;;;7.13;;
20118;SDS011;10220;42.716;23.306;2023-02-24T14:36:02;12.65;;;7.47;;
20118;SDS011;10220;42.716;23.306;2023-02-24T14:40:58;13.95;;;7.55;;
20118;SDS011;10220;42.716;23.306;2023-02-24T14:43:24;14.00;;;7.15;;
20118;SDS011;10220;42.716;23.306;2023-02-24T14:45:50;11.77;;;6.82;;
20118;SDS011;10220;42.716;23.306;2023-02-24T14:48:22;12.55;;;7.80;;
20118;SDS011;10220;42.716;23.306;2023-02-24T14:50:49;15.10;;;7.07;;
20118;SDS011;10220;42.716;23.306;2023-02-24T14:53:16;22.10;;;8.93;;
20118;SDS011;10220;42.716;23.306;2023-02-24T14:55:46;15.77;;;7.05;;
20118;SDS011;10220;42.716;23.306;2023-02-24T15:00:56;16.63;;;8.27;;
20118;SDS011;10220;42.716;23.306;2023-02-24T15:03:42;18.33;;;7.57;;
20118;SDS011;10220;42.716;23.306;2023-02-24T15:06:19;13.75;;;7.68;;
20118;SDS011;10220;42.716;23.306;2023-02-24T15:08:49;13.77;;;7.45;;
20118;SDS011;10220;42.716;23.306;2023-02-24T15:11:23;15.38;;;7.20;;
20118;SDS011;10220;42.716;23.306;2023-02-24T15:13:57;15.25;;;7.78;;
20118;SDS011;10220;42.716;23.306;2023-02-24T15:18:52;24.98;;;9.43;;
20118;SDS011;10220;42.716;23.306;2023-02-24T15:24:02;14.05;;;8.13;;
20118;SDS011;10220;42.716;23.306;2023-02-24T15:26:39;9.77;;;7.60;;
20118;SDS011;10220;42.716;23.306;2023-02-24T15:29:12;17.70;;;9.25;;
20118;SDS011;10220;42.716;23.306;2023-02-24T15:31:47;20.30;;;10.20;;
20118;SDS011;10220;42.716;23.306;2023-02-24T15:34:15;18.20;;;9.65;;
20118;SDS011;10220;42.716;23.306;2023-02-24T15:36:44;23.65;;;10.55;;
20118;SDS011;10220;42.716;23.306;2023-02-24T15:39:16;23.88;;;11.75;;
20118;SDS011;10220;42.716;23.306;2023-02-24T15:41:47;20.17;;;10.00;;
20118;SDS011;10220;42.716;23.306;2023-02-24T15:44:28;21.52;;;11.25;;
20118;SDS011;10220;42.716;23.306;2023-02-24T15:46:55;20.85;;;10.90;;
20118;SDS011;10220;42.716;23.306;2023-02-24T15:49:22;21.67;;;10.93;;
20118;SDS011;10220;42.716;23.306;2023-02-24T15:51:49;19.95;;;9.18;;
20118;SDS011;10220;42.716;23.306;2023-02-24T15:54:27;22.25;;;9.00;;
20118;SDS011;10220;42.716;23.306;2023-02-24T15:56:57;19.27;;;10.23;;
20118;SDS011;10220;42.716;23.306;2023-02-24T15:59:24;21.42;;;11.13;;
20118;SDS011;10220;42.716;23.306;2023-02-24T16:01:49;20.13;;;10.25;;
20118;SDS011;10220;42.716;23.306;2023-02-24T16:04:18;22.77;;;11.02;;
20118;SDS011;10220;42.716;23.306;2023-02-24T16:06:48;20.88;;;10.18;;
20118;SDS011;10220;42.716;23.306;2023-02-24T16:12:01;18.35;;;9.90;;
20118;SDS011;10220;42.716;23.306;2023-02-24T16:14:29;19.52;;;11.40;;
20118;SDS011;10220;42.716;23.306;2023-02-24T16:16:56;19.08;;;10.00;;
20118;SDS011;10220;42.716;23.306;2023-02-24T16:19:22;21.50;;;10.55;;
20118;SDS011;10220;42.716;23.306;2023-02-24T16:21:48;24.50;;;10.25;;
20118;SDS011;10220;42.716;23.306;2023-02-24T16:24:13;18.85;;;10.25;;
20118;SDS011;10220;42.716;23.306;2023-02-24T16:26:39;20.15;;;10.43;;
20118;SDS011;10220;42.716;23.306;2023-02-24T16:29:05;19.60;;;10.23;;
20118;SDS011;10220;42.716;23.306;2023-02-24T16:31:36;22.67;;;11.10;;
20118;SDS011;10220;42.716;23.306;2023-02-24T16:34:03;22.35;;;10.20;;
20118;SDS011;10220;42.716;23.306;2023-02-24T16:36:29;20.35;;;10.80;;
20118;SDS011;10220;42.716;23.306;2023-02-24T16:38:55;21.83;;;10.38;;
20118;SDS011;10220;42.716;23.306;2023-02-24T16:41:21;23.70;;;11.30;;
20118;SDS011;10220;42.716;23.306;2023-02-24T16:43:48;23.55;;;11.45;;
20118;SDS011;10220;42.716;23.306;2023-02-24T16:46:23;18.27;;;9.93;;
20118;SDS011;10220;42.716;23.306;2023-02-24T16:48:50;18.27;;;10.63;;
20118;SDS011;10220;42.716;23.306;2023-02-24T16:51:17;23.38;;;11.65;;
20118;SDS011;10220;42.716;23.306;2023-02-24T16:53:43;25.25;;;11.70;;
20118;SDS011;10220;42.716;23.306;2023-02-24T16:56:09;24.15;;;12.25;;
20118;SDS011;10220;42.716;23.306;2023-02-24T16:58:36;23.25;;;12.43;;
20118;SDS011;10220;42.716;23.306;2023-02-24T17:01:02;19.77;;;11.13;;
20118;SDS011;10220;42.716;23.306;2023-02-24T17:03:52;24.05;;;12.48;;
20118;SDS011;10220;42.716;23.306;2023-02-24T17:06:16;20.58;;;11.10;;
20118;SDS011;10220;42.716;23.306;2023-02-24T17:08:41;28.83;;;11.05;;
20118;SDS011;10220;42.716;23.306;2023-02-24T17:11:12;21.63;;;11.27;;
20118;SDS011;10220;42.716;23.306;2023-02-24T17:13:39;17.30;;;9.93;;
20118;SDS011;10220;42.716;23.306;2023-02-24T17:16:05;26.80;;;11.02;;
20118;SDS011;10220;42.716;23.306;2023-02-24T17:18:31;21.88;;;12.50;;
20118;SDS011;10220;42.716;23.306;2023-02-24T17:20:56;25.60;;;12.60;;
20118;SDS011;10220;42.716;23.306;2023-02-24T17:23:21;25.70;;;13.07;;
20118;SDS011;10220;42.716;23.306;2023-02-24T17:25:49;29.55;;;15.55;;
20118;SDS011;10220;42.716;23.306;2023-02-24T17:28:17;33.25;;;16.10;;